EPWR

Copernicus Wrocław Airport

Wrocław, Poland
METAR EPWR 231600Z 36008KT 9999 FEW035 M03/M10 Q1024
Observed Flight Rules
Feb-23 @ 16:00 UTC (34 minutes ago) Visual Flight Rules
Wind Visibility Clouds
360° at 8 knots 10,000+ meters
  • Few at 3,500' AGL
Temperatures Readings
Current -3°C / 27°F
Dewpoint -10°C / 14°F
Humidity 59%
Altimeter 30.24" Hg
Pressure 1024 hPa
Elevation 121
METAR EPWR 231600Z 36008KT 9999 FEW035 M03/M10 Q1024
Observed Flight Rules
Feb-23 @ 16:00 UTC
(34 minutes ago)
VFR
Wind Visibility
360° at 8 knots 10,000+ meters
Clouds
  • Few at 3,500' AGL
Temperature Dewpoint
-3°C / 27°F -10°C / 14°F
Humidity Altimeter Pressure
59% 30.24" Hg 1024 hPa